Time,TemperatureF,DewpointF,PressureIn,WindDirection,WindDirectionDegrees,WindSpeedMPH,WindSpeedGustMPH,Humidity,HourlyPrecipIn,Conditions,Clouds,dailyrainin,SoftwareType,DateUTC
2013-10-09 00:11:00,63.5,47.0,29.89,SE,143,2.0,8.0,55,0.00,,,0.00,weatherlink.com 1.10,2013-10-09 06:11:00,
2013-10-09 00:26:00,63.1,46.0,29.89,SE,139,2.0,9.0,55,0.00,,,0.00,weatherlink.com 1.10,2013-10-09 06:26:00,
2013-10-09 00:41:00,63.0,47.0,29.89,SE,145,4.0,11.0,56,0.00,,,0.00,weatherlink.com 1.10,2013-10-09 06:41:00,
2013-10-09 00:56:00,62.6,47.0,29.89,SE,146,6.0,8.0,57,0.00,,,0.00,weatherlink.com 1.10,2013-10-09 06:56:00,
2013-10-09 01:11:00,62.4,47.0,29.89,SSE,152,6.0,11.0,57,0.00,,,0.00,weatherlink.com 1.10,2013-10-09 07:11:00,
2013-10-09 01:26:00,62.0,46.0,29.89,SSE,148,4.0,10.0,57,0.00,,,0.00,weatherlink.com 1.10,2013-10-09 07:26:00,
2013-10-09 01:41:00,61.6,46.0,29.89,SSE,147,0.0,9.0,58,0.00,,,0.00,weatherlink.com 1.10,2013-10-09 07:41:00,
2013-10-09 01:56:00,61.1,46.0,29.89,SE,145,1.0,4.0,59,0.00,,,0.00,weatherlink.com 1.10,2013-10-09 07:56:00,
2013-10-09 02:11:00,60.4,46.0,29.89,SE,145,0.0,2.0,60,0.00,,,0.00,weatherlink.com 1.10,2013-10-09 08:11:00,
2013-10-09 02:26:00,59.6,46.0,29.89,SE,145,0.0,3.0,61,0.00,,,0.00,weatherlink.com 1.10,2013-10-09 08:26:00,
2013-10-09 02:41:00,58.9,46.0,29.89,SE,145,0.0,4.0,62,0.00,,,0.00,weatherlink.com 1.10,2013-10-09 08:41:00,
2013-10-09 02:56:00,58.2,45.0,29.89,SE,145,0.0,3.0,63,0.00,,,0.00,weatherlink.com 1.10,2013-10-09 08:56:00,
2013-10-09 03:11:00,58.0,46.0,29.89,SE,145,0.0,4.0,64,0.00,,,0.00,weatherlink.com 1.10,2013-10-09 09:11:00,
2013-10-09 03:26:00,57.5,45.0,29.89,SE,145,4.0,5.0,64,0.00,,,0.00,weatherlink.com 1.10,2013-10-09 09:26:00,
2013-10-09 03:41:00,57.4,46.0,29.89,SE,145,0.0,5.0,65,0.00,,,0.00,weatherlink.com 1.10,2013-10-09 09:41:00,
2013-10-09 03:56:00,57.2,45.0,29.89,SE,144,2.0,8.0,65,0.00,,,0.00,weatherlink.com 1.10,2013-10-09 09:56:00,
2013-10-09 04:11:00,56.9,46.0,29.90,SE,142,2.0,7.0,66,0.00,,,0.00,weatherlink.com 1.10,2013-10-09 10:11:00,
2013-10-09 04:26:00,56.8,45.0,29.90,SE,142,4.0,6.0,66,0.00,,,0.00,weatherlink.com 1.10,2013-10-09 10:26:00,
2013-10-09 04:41:00,56.7,45.0,29.90,SE,141,0.0,6.0,66,0.00,,,0.00,weatherlink.com 1.10,2013-10-09 10:41:00,
2013-10-09 04:56:00,56.5,46.0,29.90,SE,141,3.0,7.0,67,0.00,,,0.00,weatherlink.com 1.10,2013-10-09 10:56:00,
2013-10-09 05:11:00,56.5,46.0,29.90,SE,141,0.0,6.0,67,0.00,,,0.00,weatherlink.com 1.10,2013-10-09 11:11:00,
2013-10-09 05:26:00,56.2,46.0,29.91,SE,141,4.0,6.0,68,0.00,,,0.00,weatherlink.com 1.10,2013-10-09 11:26:00,
2013-10-09 05:41:00,55.6,46.0,29.91,SE,141,1.0,5.0,69,0.00,,,0.00,weatherlink.com 1.10,2013-10-09 11:41:00,
2013-10-09 05:56:00,55.1,45.0,29.91,SE,142,0.0,7.0,70,0.00,,,0.00,weatherlink.com 1.10,2013-10-09 11:56:00,
2013-10-09 06:11:00,54.7,45.0,29.91,SE,143,0.0,7.0,71,0.00,,,0.00,weatherlink.com 1.10,2013-10-09 12:11:00,
2013-10-09 06:26:00,54.9,46.0,29.91,SE,145,0.0,7.0,72,0.00,,,0.00,weatherlink.com 1.10,2013-10-09 12:26:00,
2013-10-09 06:41:00,55.3,46.0,29.92,SE,145,1.0,5.0,71,0.00,,,0.00,weatherlink.com 1.10,2013-10-09 12:41:00,
2013-10-09 06:56:00,55.5,46.0,29.92,SE,145,2.0,5.0,70,0.00,,,0.00,weatherlink.com 1.10,2013-10-09 12:56:00,
2013-10-09 07:11:00,55.7,46.0,29.93,SE,146,4.0,6.0,71,0.00,,,0.00,weatherlink.com 1.10,2013-10-09 13:11:00,
2013-10-09 07:26:00,56.6,46.0,29.93,SSE,147,1.0,7.0,69,0.00,,,0.00,weatherlink.com 1.10,2013-10-09 13:26:00,
2013-10-09 07:42:00,57.9,47.0,29.94,SSE,147,0.0,5.0,67,0.00,,,0.00,weatherlink.com 1.10,2013-10-09 13:42:00,
2013-10-09 07:57:00,59.5,48.0,29.95,SSE,162,0.0,8.0,65,0.00,,,0.00,weatherlink.com 1.10,2013-10-09 13:57:00,
2013-10-09 08:12:00,60.5,48.0,29.95,South,170,5.0,8.0,63,0.00,,,0.00,weatherlink.com 1.10,2013-10-09 14:12:00,
2013-10-09 08:27:00,61.7,48.0,29.96,South,177,3.0,11.0,61,0.00,,,0.00,weatherlink.com 1.10,2013-10-09 14:27:00,
2013-10-09 08:42:00,63.4,49.0,29.96,SSE,164,2.0,8.0,59,0.00,,,0.00,weatherlink.com 1.10,2013-10-09 14:42:00,
2013-10-09 08:57:00,65.0,49.0,29.96,South,172,2.0,7.0,57,0.00,,,0.00,weatherlink.com 1.10,2013-10-09 14:57:00,
2013-10-09 09:12:00,66.8,49.0,29.96,South,179,7.0,9.0,53,0.00,,,0.00,weatherlink.com 1.10,2013-10-09 15:12:00,
2013-10-09 09:27:00,67.9,49.0,29.96,South,173,6.0,10.0,52,0.00,,,0.00,weatherlink.com 1.10,2013-10-09 15:27:00,
2013-10-09 09:42:00,69.6,49.0,29.96,South,184,3.0,9.0,49,0.00,,,0.00,weatherlink.com 1.10,2013-10-09 15:42:00,
2013-10-09 09:57:00,71.6,50.0,29.96,South,183,3.0,13.0,47,0.00,,,0.00,weatherlink.com 1.10,2013-10-09 15:57:00,
2013-10-09 10:12:00,72.6,50.0,29.96,SSE,167,8.0,13.0,45,0.00,,,0.00,weatherlink.com 1.10,2013-10-09 16:12:00,
2013-10-09 10:27:00,72.9,50.0,29.96,South,189,9.0,12.0,44,0.00,,,0.00,weatherlink.com 1.10,2013-10-09 16:27:00,
2013-10-09 10:42:00,74.2,50.0,29.95,South,184,9.0,15.0,42,0.00,,,0.00,weatherlink.com 1.10,2013-10-09 16:42:00,
2013-10-09 10:57:00,75.4,50.0,29.95,South,185,7.0,13.0,41,0.00,,,0.00,weatherlink.com 1.10,2013-10-09 16:57:00,
2013-10-09 11:12:00,76.2,49.0,29.94,South,174,4.0,13.0,39,0.00,,,0.00,weatherlink.com 1.10,2013-10-09 17:12:00,
2013-10-09 11:27:00,77.0,49.0,29.93,SSE,164,3.0,12.0,37,0.00,,,0.00,weatherlink.com 1.10,2013-10-09 17:27:00,
2013-10-09 11:42:00,78.0,50.0,29.93,South,187,4.0,17.0,37,0.00,,,0.00,weatherlink.com 1.10,2013-10-09 17:42:00,
2013-10-09 11:57:00,79.1,48.0,29.93,South,175,6.0,16.0,34,0.00,,,0.00,weatherlink.com 1.10,2013-10-09 17:57:00,
2013-10-09 12:12:00,79.5,48.0,29.92,South,178,9.0,17.0,33,0.00,,,0.00,weatherlink.com 1.10,2013-10-09 18:12:00,
2013-10-09 12:27:00,79.6,48.0,29.91,South,183,10.0,18.0,33,0.00,,,0.00,weatherlink.com 1.10,2013-10-09 18:27:00,
2013-10-09 12:42:00,80.4,49.0,29.90,SSE,168,1.0,16.0,33,0.00,,,0.00,weatherlink.com 1.10,2013-10-09 18:42:00,
2013-10-09 12:57:00,79.9,48.0,29.89,South,177,4.0,15.0,33,0.00,,,0.00,weatherlink.com 1.10,2013-10-09 18:57:00,
2013-10-09 13:12:00,80.2,48.0,29.89,SSE,162,7.0,20.0,32,0.00,,,0.00,weatherlink.com 1.10,2013-10-09 19:12:00,
2013-10-09 13:27:00,81.4,48.0,29.88,SSE,168,6.0,18.0,31,0.00,,,0.00,weatherlink.com 1.10,2013-10-09 19:27:00,
2013-10-09 13:42:00,80.3,49.0,29.88,South,178,3.0,15.0,33,0.00,,,0.00,weatherlink.com 1.10,2013-10-09 19:42:00,
2013-10-09 13:58:00,81.8,48.0,29.87,South,183,4.0,17.0,31,0.00,,,0.00,weatherlink.com 1.10,2013-10-09 19:58:00,
2013-10-09 14:13:00,81.4,47.0,29.86,South,179,8.0,16.0,30,0.00,,,0.00,weatherlink.com 1.10,2013-10-09 20:13:00,
2013-10-09 14:28:00,81.2,47.0,29.86,South,181,5.0,15.0,30,0.00,,,0.00,weatherlink.com 1.10,2013-10-09 20:28:00,
2013-10-09 14:43:00,81.8,48.0,29.85,SSE,153,11.0,13.0,31,0.00,,,0.00,weatherlink.com 1.10,2013-10-09 20:43:00,
2013-10-09 14:58:00,82.1,48.0,29.85,South,177,4.0,13.0,30,0.00,,,0.00,weatherlink.com 1.10,2013-10-09 20:58:00,
2013-10-09 15:13:00,82.4,49.0,29.85,South,169,8.0,14.0,31,0.00,,,0.00,weatherlink.com 1.10,2013-10-09 21:13:00,
2013-10-09 15:28:00,82.1,49.0,29.85,SSE,151,5.0,16.0,32,0.00,,,0.00,weatherlink.com 1.10,2013-10-09 21:28:00,
2013-10-09 15:43:00,82.4,51.0,29.85,South,179,7.0,12.0,33,0.00,,,0.00,weatherlink.com 1.10,2013-10-09 21:43:00,
2013-10-09 15:58:00,82.5,51.0,29.85,SE,132,9.0,15.0,33,0.00,,,0.00,weatherlink.com 1.10,2013-10-09 21:58:00,
2013-10-09 16:13:00,82.8,50.0,29.84,SE,135,14.0,16.0,32,0.00,,,0.00,weatherlink.com 1.10,2013-10-09 22:13:00,
2013-10-09 16:28:00,82.7,50.0,29.84,SSE,149,2.0,24.0,32,0.00,,,0.00,weatherlink.com 1.10,2013-10-09 22:28:00,
2013-10-09 16:43:00,82.5,50.0,29.84,SSE,147,10.0,17.0,32,0.00,,,0.00,weatherlink.com 1.10,2013-10-09 22:43:00,
2013-10-09 16:58:00,81.7,48.0,29.84,SE,143,3.0,14.0,31,0.00,,,0.00,weatherlink.com 1.10,2013-10-09 22:58:00,
2013-10-09 17:13:00,81.6,49.0,29.84,SE,143,4.0,16.0,32,0.00,,,0.00,weatherlink.com 1.10,2013-10-09 23:13:00,
2013-10-09 17:28:00,81.1,49.0,29.84,SE,145,3.0,17.0,33,0.00,,,0.00,weatherlink.com 1.10,2013-10-09 23:28:00,
2013-10-09 17:43:00,80.3,49.0,29.84,SSE,153,6.0,11.0,34,0.00,,,0.00,weatherlink.com 1.10,2013-10-09 23:43:00,
2013-10-09 17:58:00,79.3,49.0,29.84,SE,141,5.0,11.0,35,0.00,,,0.00,weatherlink.com 1.10,2013-10-09 23:58:00,
2013-10-09 18:13:00,77.9,49.0,29.84,SE,140,2.0,8.0,36,0.00,,,0.00,weatherlink.com 1.10,2013-10-10 00:13:00,
2013-10-09 18:28:00,76.8,49.0,29.85,SE,141,2.0,8.0,38,0.00,,,0.00,weatherlink.com 1.10,2013-10-10 00:28:00,
2013-10-09 18:43:00,76.1,49.0,29.85,SSE,147,3.0,8.0,39,0.00,,,0.00,weatherlink.com 1.10,2013-10-10 00:43:00,
2013-10-09 18:58:00,75.3,49.0,29.85,SE,139,4.0,9.0,40,0.00,,,0.00,weatherlink.com 1.10,2013-10-10 00:58:00,
2013-10-09 19:13:00,74.5,49.0,29.86,SE,133,0.0,8.0,41,0.00,,,0.00,weatherlink.com 1.10,2013-10-10 01:13:00,
2013-10-09 19:28:00,73.7,48.0,29.86,SE,139,0.0,6.0,41,0.00,,,0.00,weatherlink.com 1.10,2013-10-10 01:28:00,
2013-10-09 19:43:00,72.4,49.0,29.87,SE,139,0.0,7.0,43,0.00,,,0.00,weatherlink.com 1.10,2013-10-10 01:43:00,
2013-10-09 19:58:00,71.5,49.0,29.87,SE,137,2.0,5.0,45,0.00,,,0.00,weatherlink.com 1.10,2013-10-10 01:58:00,
2013-10-09 20:13:00,71.0,49.0,29.88,SE,138,4.0,7.0,45,0.00,,,0.00,weatherlink.com 1.10,2013-10-10 02:13:00,
2013-10-09 20:28:00,70.9,48.0,29.88,SE,139,6.0,7.0,45,0.00,,,0.00,weatherlink.com 1.10,2013-10-10 02:28:00,
2013-10-09 20:43:00,70.5,49.0,29.89,SE,140,1.0,8.0,46,0.00,,,0.00,weatherlink.com 1.10,2013-10-10 02:43:00,
2013-10-09 20:58:00,70.1,48.0,29.89,SE,139,5.0,11.0,46,0.00,,,0.00,weatherlink.com 1.10,2013-10-10 02:58:00,
2013-10-09 21:13:00,70.1,48.0,29.89,SE,137,10.0,12.0,46,0.00,,,0.00,weatherlink.com 1.10,2013-10-10 03:13:00,
2013-10-09 21:28:00,70.0,48.0,29.90,SE,139,4.0,12.0,45,0.00,,,0.00,weatherlink.com 1.10,2013-10-10 03:28:00,
2013-10-09 21:43:00,69.8,48.0,29.90,SSE,152,7.0,12.0,46,0.00,,,0.00,weatherlink.com 1.10,2013-10-10 03:43:00,
2013-10-09 22:13:00,68.3,48.0,29.90,SE,143,6.0,11.0,48,0.00,,,0.00,weatherlink.com 1.10,2013-10-10 04:13:00,
2013-10-09 22:28:00,67.8,48.0,29.89,SE,137,4.0,13.0,50,0.00,,,0.00,weatherlink.com 1.10,2013-10-10 04:28:00,
2013-10-09 22:43:00,68.0,49.0,29.89,SSE,156,5.0,17.0,51,0.00,,,0.00,weatherlink.com 1.10,2013-10-10 04:43:00,
2013-10-09 22:58:00,68.3,50.0,29.90,SSE,157,2.0,13.0,52,0.00,,,0.00,weatherlink.com 1.10,2013-10-10 04:58:00,
2013-10-09 23:13:00,68.3,50.0,29.90,SSE,152,4.0,12.0,52,0.00,,,0.00,weatherlink.com 1.10,2013-10-10 05:13:00,
2013-10-09 23:28:00,67.7,50.0,29.90,SSE,151,3.0,14.0,53,0.00,,,0.00,weatherlink.com 1.10,2013-10-10 05:28:00,
2013-10-09 23:43:00,67.0,50.0,29.90,SSE,152,8.0,9.0,55,0.00,,,0.00,weatherlink.com 1.10,2013-10-10 05:43:00,
2013-10-09 23:58:00,66.6,50.0,29.89,SE,144,5.0,12.0,56,0.00,,,0.00,weatherlink.com 1.10,2013-10-10 05:58:00,